Time;durP1;ratioP1;P1;durP2;ratioP2;P2;SDS_P1;SDS_P2;PMS_P1;PMS_P2;Temp;Humidity;BMP_temperature;BMP_pressure;BME280_temperature;BME280_humidity;BME280_pressure;Samples;Min_cycle;Max_cycle;Signal;HPM_P1;HPM_P2
2021/12/27 00:01:46;;;;;;;3.10;1.97;;;;;;;18.55;51.71;99136.47;5072131;28;20193;-57
2021/12/27 00:04:11;;;;;;;4.00;2.43;;;;;;;18.54;51.72;99134.00;5071245;28;20191;-58
2021/12/27 00:06:37;;;;;;;4.13;2.50;;;;;;;18.51;51.70;99137.69;5070829;28;20587;-58
2021/12/27 00:09:02;;;;;;;3.70;2.30;;;;;;;18.56;51.50;99137.28;5069740;28;20179;-57
2021/12/27 00:11:28;;;;;;;5.07;2.43;;;;;;;18.52;51.87;99139.31;5071138;28;20171;-57
2021/12/27 00:13:53;;;;;;;4.83;2.90;;;;;;;18.55;51.61;99147.06;5070359;28;20182;-58
2021/12/27 00:16:19;;;;;;;4.27;2.83;;;;;;;18.51;51.97;99141.34;5070280;28;20186;-58
2021/12/27 00:18:44;;;;;;;4.00;2.37;;;;;;;18.49;51.73;99145.84;5070998;28;20179;-58
2021/12/27 00:21:10;;;;;;;4.67;2.57;;;;;;;18.55;51.50;99135.63;5077332;28;20170;-57
2021/12/27 00:23:35;;;;;;;5.17;2.60;;;;;;;18.55;51.42;99130.75;5088930;28;20182;-58
2021/12/27 00:26:01;;;;;;;3.60;2.43;;;;;;;18.58;51.54;99138.50;5069934;28;20175;-57
2021/12/27 00:28:27;;;;;;;2.70;2.07;;;;;;;18.50;51.87;99134.00;5069746;28;20179;-58
2021/12/27 00:30:52;;;;;;;3.57;2.43;;;;;;;18.51;51.83;99140.56;5071103;28;20202;-58
2021/12/27 00:33:18;;;;;;;4.60;2.20;;;;;;;18.46;51.95;99143.81;5071239;28;20449;-57
2021/12/27 00:35:43;;;;;;;3.33;2.03;;;;;;;18.47;51.69;99129.09;5070131;28;20252;-58
2021/12/27 00:38:09;;;;;;;3.23;2.27;;;;;;;18.48;51.96;99125.03;5062499;28;20537;-57
2021/12/27 00:40:35;;;;;;;3.30;2.20;;;;;;;18.47;51.95;99134.03;5063429;28;20178;-58
2021/12/27 00:43:00;;;;;;;3.90;2.57;;;;;;;18.45;51.78;99127.88;5070266;28;20692;-58
2021/12/27 00:45:25;;;;;;;2.93;1.93;;;;;;;18.49;51.64;99134.41;5069664;28;20433;-58
2021/12/27 00:47:51;;;;;;;3.90;2.20;;;;;;;18.45;51.65;99125.84;5069893;28;20175;-58
2021/12/27 00:50:17;;;;;;;3.80;2.13;;;;;;;18.48;51.80;99129.94;5063972;28;20179;-58
2021/12/27 00:52:42;;;;;;;2.83;2.17;;;;;;;18.49;51.79;99138.09;5069793;28;20175;-57
2021/12/27 00:55:09;;;;;;;2.83;2.00;;;;;;;18.50;51.91;99136.88;5069840;28;20187;-58
2021/12/27 00:57:34;;;;;;;3.20;2.10;;;;;;;18.47;51.69;99116.88;5070015;28;20631;-56
2021/12/27 01:00:00;;;;;;;4.10;2.60;;;;;;;18.47;51.58;99134.81;5070758;28;20406;-58
2021/12/27 01:02:26;;;;;;;5.73;3.00;;;;;;;18.45;51.96;99134.41;5062164;28;20204;-58
2021/12/27 01:04:51;;;;;;;4.20;2.50;;;;;;;18.46;51.49;99126.69;5069304;28;20163;-57
2021/12/27 01:07:16;;;;;;;3.00;2.10;;;;;;;18.44;52.13;99115.66;5067758;28;20195;-58
2021/12/27 01:12:28;;;;;;;3.80;2.37;;;;;;;18.46;51.74;99129.53;5069726;28;20206;-58
2021/12/27 01:15:33;;;;;;;3.63;2.23;;;;;;;18.44;51.71;99129.94;5069835;28;20194;-58
2021/12/27 01:17:43;;;;;;;3.17;2.30;;;;;;;18.41;52.05;99130.75;5047162;28;20454;-58
2021/12/27 01:20:10;;;;;;;3.83;2.37;;;;;;;18.41;52.04;99124.22;5063227;28;20492;-58
2021/12/27 01:22:36;;;;;;;4.47;2.67;;;;;;;18.42;51.91;99131.56;5068653;28;20445;-58
2021/12/27 01:25:02;;;;;;;4.00;2.67;;;;;;;18.43;51.78;99128.31;5070174;28;20474;-58
2021/12/27 01:27:28;;;;;;;3.27;2.30;;;;;;;18.42;52.06;99109.50;5069158;28;20292;-58
2021/12/27 01:29:53;;;;;;;4.50;2.40;;;;;;;18.43;52.03;99122.59;5069110;28;20421;-58
2021/12/27 01:32:19;;;;;;;3.90;2.70;;;;;;;18.45;52.13;99116.44;5068727;28;20547;-58
2021/12/27 01:34:44;;;;;;;2.90;2.20;;;;;;;18.43;51.71;99122.59;5069833;28;20626;-57
2021/12/27 01:37:10;;;;;;;3.60;2.30;;;;;;;18.40;52.35;99111.13;5064896;28;20167;-58
2021/12/27 01:39:35;;;;;;;3.33;2.30;;;;;;;18.42;51.88;99118.09;5067152;28;20907;-57
2021/12/27 01:42:01;;;;;;;2.80;1.97;;;;;;;18.42;52.25;99118.09;5067800;28;20666;-58
2021/12/27 01:44:26;;;;;;;3.43;2.10;;;;;;;18.41;52.45;99119.31;5070069;28;20774;-58
2021/12/27 01:46:53;;;;;;;3.30;2.60;;;;;;;18.43;51.95;99102.59;5067687;28;20186;-58
2021/12/27 01:49:18;;;;;;;2.90;1.90;;;;;;;18.40;52.07;99109.13;5065453;28;20650;-58
2021/12/27 01:51:44;;;;;;;2.57;1.87;;;;;;;18.43;51.54;99111.16;5068771;28;20414;-58
2021/12/27 01:54:09;;;;;;;3.73;2.20;;;;;;;18.39;51.69;99098.91;5070626;28;20171;-57
2021/12/27 01:56:35;;;;;;;3.03;2.10;;;;;;;18.42;51.65;99100.94;5068910;28;20642;-58
2021/12/27 01:59:00;;;;;;;4.23;2.57;;;;;;;18.39;52.12;99098.09;5068647;28;20242;-58
2021/12/27 02:01:26;;;;;;;3.13;2.30;;;;;;;18.39;51.79;99098.91;5069043;28;20554;-58
2021/12/27 02:03:52;;;;;;;3.20;2.03;;;;;;;18.40;51.95;99106.25;5070249;28;20171;-58
2021/12/27 02:06:17;;;;;;;4.43;2.47;;;;;;;18.40;51.56;99097.69;5068111;28;20233;-57
2021/12/27 02:08:43;;;;;;;3.70;2.23;;;;;;;18.41;51.79;99096.44;5068699;28;20923;-58
2021/12/27 02:11:10;;;;;;;3.53;2.13;;;;;;;18.37;52.03;99098.50;5069296;28;20530;-57
2021/12/27 02:13:41;;;;;;;3.20;2.40;;;;;;;18.36;52.09;99094.00;5070184;28;20218;-58
2021/12/27 02:16:07;;;;;;;4.83;2.23;;;;;;;18.36;51.92;99096.88;5051111;28;20797;-58
2021/12/27 02:18:33;;;;;;;3.10;2.00;;;;;;;18.38;51.97;99099.31;5068486;28;20491;-58
2021/12/27 02:20:58;;;;;;;3.80;2.13;;;;;;;18.39;51.84;99100.94;5068772;28;20557;-58
2021/12/27 02:23:24;;;;;;;3.27;2.30;;;;;;;18.39;52.25;99098.09;5068795;28;20211;-58
2021/12/27 02:25:50;;;;;;;4.20;2.43;;;;;;;18.36;51.97;99098.94;5067045;28;20175;-58
2021/12/27 02:28:16;;;;;;;3.50;2.20;;;;;;;18.38;51.84;99090.75;5067003;28;20966;-58
2021/12/27 02:30:42;;;;;;;3.20;2.43;;;;;;;18.39;51.54;99087.47;5086291;28;20171;-58
2021/12/27 02:33:08;;;;;;;3.47;2.23;;;;;;;18.37;52.43;99084.19;5088961;28;20427;-58
2021/12/27 02:35:37;;;;;;;4.97;2.37;;;;;;;18.35;52.70;99089.53;5083226;28;20433;-58
2021/12/27 02:38:03;;;;;;;4.13;2.23;;;;;;;18.38;51.64;99085.03;5069053;28;20913;-58
2021/12/27 02:40:30;;;;;;;3.40;1.80;;;;;;;18.38;51.46;99085.03;5069674;28;20415;-57
2021/12/27 02:43:05;;;;;;;3.70;2.37;;;;;;;18.39;51.74;99086.66;5069523;28;20222;-58
2021/12/27 02:45:33;;;;;;;3.87;2.30;;;;;;;18.35;52.11;99082.97;5065857;28;20436;-58
2021/12/27 02:47:59;;;;;;;3.30;2.10;;;;;;;18.35;51.77;99074.41;5067828;28;20908;-58
2021/12/27 02:50:25;;;;;;;3.10;1.93;;;;;;;18.37;52.10;99074.84;5067103;28;20421;-57
2021/12/27 02:52:50;;;;;;;3.43;2.40;;;;;;;18.35;51.67;99078.09;5065413;28;20179;-58
2021/12/27 02:55:16;;;;;;;2.70;1.87;;;;;;;18.40;51.86;99077.69;5068815;28;20171;-58
2021/12/27 02:57:43;;;;;;;3.10;2.00;;;;;;;18.36;51.74;99087.50;5065056;28;20179;-58
2021/12/27 03:00:30;;;;;;;4.10;2.43;;;;;;;18.35;52.38;99080.13;5059559;28;20187;-58
2021/12/27 03:02:56;;;;;;;3.27;2.17;;;;;;;18.37;51.79;99080.53;5068279;28;20453;-58
2021/12/27 03:05:22;;;;;;;3.17;2.07;;;;;;;18.31;52.24;99068.66;5068576;28;20479;-57
2021/12/27 03:07:48;;;;;;;3.40;2.30;;;;;;;18.29;52.00;99065.41;5068346;28;20191;-58
2021/12/27 03:10:16;;;;;;;3.33;2.03;;;;;;;18.36;51.84;99056.84;5067422;28;20433;-57
2021/12/27 03:12:45;;;;;;;3.60;2.07;;;;;;;18.35;51.55;99054.41;5068642;28;20509;-58
2021/12/27 03:15:11;;;;;;;3.73;2.20;;;;;;;18.37;51.98;99061.34;5068618;28;20417;-58
2021/12/27 03:17:37;;;;;;;3.33;2.30;;;;;;;18.35;51.66;99058.09;5069259;28;20996;-58
2021/12/27 03:20:03;;;;;;;5.10;2.53;;;;;;;18.35;51.97;99057.25;5050112;28;20429;-58
2021/12/27 03:22:29;;;;;;;2.70;2.03;;;;;;;18.35;51.83;99057.25;5078965;28;20247;-58
2021/12/27 03:24:55;;;;;;;2.60;2.10;;;;;;;18.34;51.81;99062.19;5072445;28;20445;-56
2021/12/27 03:27:20;;;;;;;3.37;2.37;;;;;;;18.35;51.57;99055.22;5066060;28;20552;-58
2021/12/27 03:29:45;;;;;;;4.77;2.27;;;;;;;18.34;51.86;99055.63;5059180;28;20225;-58
2021/12/27 03:32:11;;;;;;;2.90;2.10;;;;;;;18.36;51.54;99048.28;5071683;28;20221;-57
2021/12/27 03:34:42;;;;;;;3.17;2.17;;;;;;;18.28;52.02;99058.06;5071881;28;20179;-58
2021/12/27 03:37:08;;;;;;;2.90;2.10;;;;;;;18.31;52.16;99054.38;5070374;28;20270;-58
2021/12/27 03:39:34;;;;;;;2.70;1.90;;;;;;;18.33;51.44;99057.69;5069370;28;20444;-58
2021/12/27 03:41:59;;;;;;;2.77;2.33;;;;;;;18.34;52.00;99049.94;5068942;28;20441;-58
2021/12/27 03:44:25;;;;;;;6.33;2.30;;;;;;;18.30;51.91;99047.03;5070451;28;20182;-58
2021/12/27 03:46:50;;;;;;;2.80;1.63;;;;;;;18.34;52.65;99042.19;5071872;28;20583;-58
2021/12/27 03:49:15;;;;;;;3.47;2.40;;;;;;;18.32;52.01;99044.63;5070785;28;20194;-58
2021/12/27 03:51:43;;;;;;;3.23;1.93;;;;;;;18.32;51.67;99044.63;5071612;28;20198;-58
2021/12/27 03:54:09;;;;;;;3.50;1.97;;;;;;;18.34;51.41;99045.03;5079960;28;20560;-58
2021/12/27 03:56:34;;;;;;;3.30;2.47;;;;;;;18.38;51.53;99051.56;5071954;28;20432;-57
2021/12/27 03:59:20;;;;;;;2.80;1.97;;;;;;;18.33;51.60;99049.13;5070631;28;20286;-58
2021/12/27 04:01:45;;;;;;;3.57;2.40;;;;;;;18.33;51.83;99043.41;5070067;28;20197;-58
2021/12/27 04:04:10;;;;;;;3.10;2.33;;;;;;;18.38;51.85;99037.28;5070828;28;20413;-58
2021/12/27 04:06:36;;;;;;;2.90;1.90;;;;;;;18.40;51.55;99037.69;5072459;28;20199;-58
2021/12/27 04:09:01;;;;;;;2.90;2.03;;;;;;;18.30;52.44;99037.66;5069564;28;20248;-58
2021/12/27 04:11:28;;;;;;;2.90;1.93;;;;;;;18.33;51.80;99043.41;5069908;28;20670;-58
2021/12/27 04:13:55;;;;;;;3.53;2.20;;;;;;;18.34;51.49;99045.03;5070344;28;20576;-58
2021/12/27 04:16:21;;;;;;;2.70;1.80;;;;;;;18.34;51.84;99038.50;5072082;28;20413;-58
2021/12/27 04:18:46;;;;;;;3.00;1.87;;;;;;;18.34;51.77;99036.47;5070427;28;20871;-57
2021/12/27 04:21:12;;;;;;;3.90;2.13;;;;;;;18.31;51.88;99033.59;5068616;28;20183;-58
2021/12/27 04:23:37;;;;;;;3.10;2.00;;;;;;;18.32;51.85;99027.47;5071154;28;20187;-58
2021/12/27 04:26:03;;;;;;;2.70;1.80;;;;;;;18.32;51.95;99029.50;5071593;28;20175;-57
2021/12/27 04:28:28;;;;;;;3.30;1.93;;;;;;;18.32;51.90;99030.31;5068385;28;20595;-58
2021/12/27 04:30:54;;;;;;;3.30;2.33;;;;;;;18.37;51.56;99026.25;5070932;28;20564;-57
2021/12/27 04:33:19;;;;;;;3.20;2.07;;;;;;;18.35;51.48;99028.69;5071462;28;20533;-58
2021/12/27 04:35:45;;;;;;;2.80;1.90;;;;;;;18.31;51.69;99031.53;5070838;28;20183;-58
2021/12/27 04:38:10;;;;;;;3.30;2.27;;;;;;;18.39;51.35;99023.78;5069700;28;20211;-58
2021/12/27 04:40:38;;;;;;;3.13;1.90;;;;;;;18.32;51.65;99021.75;5067352;28;20569;-58
2021/12/27 04:43:13;;;;;;;2.80;1.90;;;;;;;18.29;52.24;99022.56;5071226;28;20202;-58
2021/12/27 04:45:39;;;;;;;3.00;2.00;;;;;;;18.31;51.76;99022.97;5069839;28;20447;-58
2021/12/27 04:48:05;;;;;;;3.10;2.07;;;;;;;18.31;51.96;99027.88;5070641;28;20422;-58
2021/12/27 04:50:30;;;;;;;3.53;2.10;;;;;;;18.31;51.92;99025.00;5070888;28;20672;-58
2021/12/27 04:52:55;;;;;;;3.90;2.40;;;;;;;18.34;51.87;99027.06;5069855;28;20167;-58
2021/12/27 04:55:22;;;;;;;2.63;2.20;;;;;;;18.36;51.72;99027.50;5070366;28;20194;-58
2021/12/27 04:57:48;;;;;;;3.37;2.10;;;;;;;18.35;51.53;99026.66;5069582;28;20320;-58
2021/12/27 05:00:14;;;;;;;2.73;2.13;;;;;;;18.31;51.84;99025.81;5070270;28;20508;-58
2021/12/27 05:02:39;;;;;;;3.73;2.10;;;;;;;18.33;51.68;99022.59;5070698;28;20211;-58
2021/12/27 05:05:05;;;;;;;3.90;2.40;;;;;;;18.34;51.43;99022.19;5070748;28;20182;-57
2021/12/27 05:07:30;;;;;;;2.60;2.00;;;;;;;18.34;51.62;99019.31;5069849;28;20673;-58
2021/12/27 05:09:56;;;;;;;2.00;1.50;;;;;;;18.31;51.76;99017.25;5071195;28;20213;-58
2021/12/27 05:12:21;;;;;;;3.30;2.07;;;;;;;18.34;51.70;99018.50;5069831;28;20183;-58
2021/12/27 05:14:46;;;;;;;3.23;2.30;;;;;;;18.33;51.55;99014.84;5069585;28;20170;-57
2021/12/27 05:17:12;;;;;;;3.47;2.07;;;;;;;18.32;51.38;99010.31;5069157;28;20175;-58
2021/12/27 05:19:37;;;;;;;2.90;1.80;;;;;;;18.29;51.71;98996.03;5070846;28;20175;-58
2021/12/27 05:22:03;;;;;;;2.63;2.00;;;;;;;18.26;52.02;98991.94;5065585;28;20625;-58
2021/12/27 05:24:28;;;;;;;3.63;2.33;;;;;;;18.29;51.79;98991.13;5069994;28;20201;-58
2021/12/27 05:26:54;;;;;;;3.00;2.00;;;;;;;18.33;51.37;98994.00;5074269;28;20700;-57
2021/12/27 05:29:20;;;;;;;2.70;1.70;;;;;;;18.31;51.45;98991.53;5070453;28;20540;-58
2021/12/27 05:31:45;;;;;;;2.63;1.73;;;;;;;18.30;51.88;98989.06;5069994;28;20245;-58
2021/12/27 05:34:11;;;;;;;2.90;2.00;;;;;;;18.26;51.74;98980.53;5069738;28;20171;-58
2021/12/27 05:36:36;;;;;;;3.10;1.90;;;;;;;18.25;52.00;98978.06;5068813;28;20247;-58
2021/12/27 05:39:02;;;;;;;4.33;2.50;;;;;;;18.25;51.93;98972.34;5068833;28;20183;-58
2021/12/27 05:41:27;;;;;;;3.20;2.13;;;;;;;18.22;52.00;98973.19;5067675;28;20191;-58
2021/12/27 05:43:52;;;;;;;3.20;2.30;;;;;;;18.25;51.78;98975.22;5069386;28;20531;-58
2021/12/27 05:46:18;;;;;;;2.70;1.80;;;;;;;18.25;51.87;98972.34;5061345;28;20182;-58
2021/12/27 05:48:43;;;;;;;2.97;2.00;;;;;;;18.25;51.53;98978.06;5068329;28;20191;-58
2021/12/27 05:51:09;;;;;;;3.17;1.77;;;;;;;18.22;51.74;98974.00;5069551;28;20171;-58
2021/12/27 05:53:34;;;;;;;2.67;2.03;;;;;;;18.24;52.06;98979.31;5067056;28;20190;-58
2021/12/27 05:56:00;;;;;;;3.20;1.73;;;;;;;18.23;51.83;98969.09;5068245;28;20638;-58
2021/12/27 05:58:25;;;;;;;3.50;2.33;;;;;;;18.20;51.88;98970.75;5068269;28;20230;-57
2021/12/27 06:00:51;;;;;;;2.40;1.60;;;;;;;18.19;52.00;98971.97;5068750;28;20182;-58
2021/12/27 06:03:16;;;;;;;3.50;2.27;;;;;;;18.21;51.68;98965.84;5075960;28;20285;-58
2021/12/27 06:05:42;;;;;;;3.70;2.23;;;;;;;18.21;51.90;98972.38;5089108;28;20542;-58
2021/12/27 06:08:07;;;;;;;3.30;2.30;;;;;;;18.20;51.78;98967.88;5089447;28;20665;-57
2021/12/27 06:10:33;;;;;;;3.10;2.00;;;;;;;18.21;52.09;98972.38;5068805;28;20185;-58
2021/12/27 06:12:58;;;;;;;3.07;2.07;;;;;;;18.18;51.95;98966.66;5068296;28;20167;-58
2021/12/27 06:15:24;;;;;;;3.10;2.17;;;;;;;18.21;52.12;98965.84;5069607;28;20171;-58
2021/12/27 06:17:49;;;;;;;3.03;2.33;;;;;;;18.14;52.04;98963.81;5068277;28;20248;-57
2021/12/27 06:20:15;;;;;;;3.97;2.43;;;;;;;18.16;52.60;98955.66;5069068;28;20194;-58
2021/12/27 06:22:45;;;;;;;2.90;1.80;;;;;;;18.16;52.39;98963.41;5068408;28;20227;-58
2021/12/27 06:25:10;;;;;;;2.60;1.60;;;;;;;18.15;51.97;98958.91;5067541;28;20441;-58
2021/12/27 06:27:36;;;;;;;2.90;2.17;;;;;;;18.14;51.86;98966.69;5069317;28;20452;-58
2021/12/27 06:30:02;;;;;;;3.20;1.97;;;;;;;18.16;52.11;98963.41;5066893;28;20566;-58
2021/12/27 06:32:28;;;;;;;2.57;1.70;;;;;;;18.16;51.85;98961.34;5055282;28;20683;-58
2021/12/27 06:34:53;;;;;;;3.60;2.47;;;;;;;18.11;52.16;98967.50;5088484;28;20416;-58
2021/12/27 06:37:19;;;;;;;3.70;2.00;;;;;;;18.09;52.52;98967.09;5078207;28;20229;-58
2021/12/27 06:39:44;;;;;;;5.77;2.50;;;;;;;18.14;51.68;98963.81;5076567;28;20552;-58
2021/12/27 06:42:10;;;;;;;4.60;2.50;;;;;;;18.11;52.07;98958.91;5069282;28;20187;-58
2021/12/27 06:44:35;;;;;;;2.50;2.00;;;;;;;18.15;51.82;98953.19;5067862;28;20197;-58
2021/12/27 06:47:01;;;;;;;3.00;2.00;;;;;;;18.09;52.49;98944.25;5066875;28;20182;-58
2021/12/27 06:49:27;;;;;;;2.37;1.60;;;;;;;18.13;52.19;98944.22;5068276;28;20748;-58
2021/12/27 06:51:53;;;;;;;2.90;2.10;;;;;;;18.06;52.24;98936.50;5068136;28;20183;-58
2021/12/27 06:54:19;;;;;;;2.67;1.90;;;;;;;18.10;51.90;98940.16;5066592;28;20451;-58
2021/12/27 06:56:44;;;;;;;2.70;1.83;;;;;;;18.14;51.86;98938.13;5069231;28;20179;-58
2021/12/27 06:59:10;;;;;;;3.43;2.10;;;;;;;18.08;51.94;98930.38;5068282;28;20465;-58
2021/12/27 07:01:35;;;;;;;3.53;2.10;;;;;;;18.08;52.16;98934.06;5069754;28;20179;-58
2021/12/27 07:04:01;;;;;;;2.67;1.80;;;;;;;18.06;52.31;98930.78;5067974;28;20230;-58
2021/12/27 07:06:26;;;;;;;3.13;1.93;;;;;;;18.09;51.65;98921.41;5070575;28;20348;-58
2021/12/27 07:08:52;;;;;;;4.27;2.47;;;;;;;18.09;51.95;98923.44;5070535;28;20167;-58
2021/12/27 07:11:17;;;;;;;3.63;2.30;;;;;;;18.07;52.24;98920.97;5072435;28;20187;-58
2021/12/27 07:13:43;;;;;;;3.37;2.20;;;;;;;18.03;52.77;98919.38;5071843;28;20190;-58
2021/12/27 07:16:08;;;;;;;2.53;1.80;;;;;;;18.06;51.98;98921.41;5073007;28;20190;-58
2021/12/27 07:18:33;;;;;;;3.30;2.10;;;;;;;18.08;52.16;98921.81;5054903;28;20175;-58
2021/12/27 07:20:59;;;;;;;3.40;2.13;;;;;;;18.06;52.72;98925.06;5071379;28;20163;-58
2021/12/27 07:23:24;;;;;;;2.90;1.97;;;;;;;18.06;52.06;98927.91;5066547;28;20195;-58
2021/12/27 07:25:50;;;;;;;3.17;2.23;;;;;;;18.02;52.45;98932.81;5071389;28;20262;-58
2021/12/27 07:28:15;;;;;;;2.70;2.00;;;;;;;18.03;52.38;98934.47;5070593;28;20174;-57
2021/12/27 07:30:41;;;;;;;3.13;2.33;;;;;;;18.03;52.75;98939.34;5072614;28;20175;-58
2021/12/27 07:33:06;;;;;;;2.93;1.80;;;;;;;18.01;52.53;98945.47;5071342;28;20213;-57
2021/12/27 07:35:31;;;;;;;4.60;2.13;;;;;;;18.01;52.14;98953.25;5052623;28;20208;-57
2021/12/27 07:37:57;;;;;;;3.27;2.10;;;;;;;18.03;52.30;98962.19;5067874;28;20228;-58
2021/12/27 07:40:22;;;;;;;3.00;2.30;;;;;;;17.98;53.16;98954.06;5071028;28;20193;-58
2021/12/27 07:42:48;;;;;;;2.83;1.80;;;;;;;17.99;52.40;98958.53;5069920;28;20187;-58
2021/12/27 07:45:13;;;;;;;3.10;2.10;;;;;;;18.00;52.48;98948.72;5068149;28;20525;-58
2021/12/27 07:47:39;;;;;;;2.83;2.07;;;;;;;17.98;52.61;98951.19;5070256;28;20167;-57
2021/12/27 07:50:05;;;;;;;3.40;2.00;;;;;;;17.96;52.78;98945.88;5071858;28;20237;-57
2021/12/27 07:52:30;;;;;;;2.67;1.60;;;;;;;17.96;52.39;98948.75;5069568;28;20244;-58
2021/12/27 07:54:55;;;;;;;3.37;2.17;;;;;;;17.95;52.09;98947.13;5070556;28;20413;-57
2021/12/27 07:57:21;;;;;;;2.63;1.77;;;;;;;17.98;52.35;98946.31;5070487;28;20206;-58
2021/12/27 07:59:47;;;;;;;2.83;1.80;;;;;;;17.96;52.39;98947.94;5071653;28;20223;-58
2021/12/27 08:02:14;;;;;;;3.73;2.30;;;;;;;17.93;52.37;98943.88;5069543;28;20669;-57
2021/12/27 08:04:39;;;;;;;3.50;1.93;;;;;;;17.91;52.30;98943.44;5069971;28;20519;-58
2021/12/27 08:07:05;;;;;;;3.43;2.07;;;;;;;17.93;52.48;98935.31;5070219;28;20437;-58
2021/12/27 08:09:30;;;;;;;2.67;1.80;;;;;;;17.96;52.05;98930.81;5070978;28;20187;-58
2021/12/27 08:11:55;;;;;;;2.87;1.93;;;;;;;17.94;52.45;98934.06;5065757;28;20236;-58
2021/12/27 08:14:21;;;;;;;2.30;1.70;;;;;;;17.94;52.15;98931.22;5057124;28;20184;-57
2021/12/27 08:16:46;;;;;;;3.37;2.07;;;;;;;17.92;52.99;98924.28;5068464;28;20268;-58
2021/12/27 08:19:12;;;;;;;3.57;2.10;;;;;;;17.96;52.06;98931.59;5070112;28;20249;-58
2021/12/27 08:21:38;;;;;;;2.70;1.90;;;;;;;17.93;52.54;98926.75;5069850;28;20195;-58
2021/12/27 08:24:07;;;;;;;3.10;2.07;;;;;;;17.91;52.57;98934.09;5071245;28;20403;-58
2021/12/27 08:26:32;;;;;;;2.63;1.57;;;;;;;17.96;51.97;98931.59;5063973;28;20658;-58
2021/12/27 08:28:58;;;;;;;3.00;2.10;;;;;;;17.91;52.64;98934.88;5071373;28;20429;-58
2021/12/27 08:31:23;;;;;;;2.23;1.70;;;;;;;17.92;52.21;98936.53;5071758;28;20178;-58
2021/12/27 08:33:49;;;;;;;3.10;2.20;;;;;;;17.91;52.63;98923.47;5069862;28;20265;-57
2021/12/27 08:36:14;;;;;;;3.10;2.20;;;;;;;17.90;52.32;98927.53;5069501;28;20550;-58
2021/12/27 08:38:40;;;;;;;3.50;2.20;;;;;;;17.89;52.56;98930.81;5054509;28;20230;-58
2021/12/27 08:41:05;;;;;;;2.40;1.70;;;;;;;17.90;52.43;98926.75;5058160;28;20175;-58
2021/12/27 08:43:31;;;;;;;2.87;2.10;;;;;;;17.85;53.27;98936.53;5070525;28;20552;-58
2021/12/27 08:45:59;;;;;;;2.93;2.23;;;;;;;17.90;52.54;98938.97;5070044;28;20328;-58
2021/12/27 08:48:24;;;;;;;4.10;2.50;;;;;;;17.88;52.13;98938.56;5069755;28;20577;-58
2021/12/27 08:50:49;;;;;;;2.80;2.30;;;;;;;17.90;52.88;98932.47;5069717;28;20433;-58
2021/12/27 08:53:15;;;;;;;3.20;1.90;;;;;;;17.87;52.48;98934.09;5068391;28;20175;-58
2021/12/27 08:55:40;;;;;;;2.90;2.03;;;;;;;17.86;52.43;98929.59;5071206;28;20190;-57
2021/12/27 08:58:06;;;;;;;2.70;2.00;;;;;;;17.88;52.36;98923.47;5069498;28;20219;-58
2021/12/27 09:00:31;;;;;;;3.13;2.13;;;;;;;17.87;52.52;98916.97;5068853;28;20211;-58
2021/12/27 09:02:57;;;;;;;2.57;1.80;;;;;;;17.86;52.54;98912.47;5063168;28;20218;-57
2021/12/27 09:05:22;;;;;;;3.27;2.13;;;;;;;17.85;52.63;98905.13;5069482;28;20206;-58
2021/12/27 09:07:48;;;;;;;3.03;2.30;;;;;;;17.85;52.47;98910.03;5068382;28;20269;-58
2021/12/27 09:10:13;;;;;;;2.80;1.73;;;;;;;17.84;52.18;98906.34;5069444;28;20548;-58
2021/12/27 09:12:40;;;;;;;3.17;1.97;;;;;;;17.85;52.39;98904.31;5069603;28;20171;-57
2021/12/27 09:15:06;;;;;;;3.07;1.80;;;;;;;17.86;52.49;98903.88;5069526;28;20769;-58
2021/12/27 09:17:32;;;;;;;3.80;2.00;;;;;;;17.83;52.79;98890.44;5069693;28;20445;-57
2021/12/27 09:19:57;;;;;;;2.87;1.93;;;;;;;17.84;52.37;98892.06;5069829;28;20429;-58
2021/12/27 09:22:22;;;;;;;2.77;2.20;;;;;;;17.80;52.45;98890.47;5069679;28;20195;-58
2021/12/27 09:24:51;;;;;;;3.40;2.23;;;;;;;17.82;52.80;98890.88;5068483;28;20700;-57
2021/12/27 09:27:17;;;;;;;2.53;1.93;;;;;;;17.83;52.71;98881.88;5066555;28;20202;-60
2021/12/27 09:29:43;;;;;;;2.67;2.10;;;;;;;17.86;52.55;98888.81;5063902;28;20439;-58
2021/12/27 09:32:09;;;;;;;2.70;1.80;;;;;;;17.83;52.88;98890.44;5082148;28;20807;-57
2021/12/27 09:34:35;;;;;;;3.23;1.90;;;;;;;17.81;52.25;98884.31;5069620;28;20288;-58
2021/12/27 09:37:00;;;;;;;2.37;1.60;;;;;;;17.83;52.30;98878.22;5068729;28;20860;-57
2021/12/27 09:39:26;;;;;;;3.30;2.17;;;;;;;17.84;52.44;98882.69;5065866;28;20655;-58
2021/12/27 09:41:51;;;;;;;2.50;1.83;;;;;;;17.82;52.19;98874.56;5069569;28;20199;-58
2021/12/27 09:44:17;;;;;;;3.50;2.43;;;;;;;17.83;52.46;98875.34;5067991;28;20202;-58
2021/12/27 09:46:42;;;;;;;3.13;1.80;;;;;;;17.82;52.73;98874.56;5052051;28;20171;-58
2021/12/27 09:49:10;;;;;;;3.20;2.10;;;;;;;17.83;52.30;98873.31;5066009;28;20240;-58
2021/12/27 09:51:37;;;;;;;6.67;2.30;;;;;;;17.84;52.25;98869.25;5066357;28;20175;-58
2021/12/27 09:54:03;;;;;;;3.30;2.00;;;;;;;17.83;52.81;98863.94;5068613;28;20796;-58
2021/12/27 09:56:28;;;;;;;3.27;1.87;;;;;;;17.81;52.35;98867.19;5069286;28;20443;-57
2021/12/27 09:58:54;;;;;;;3.00;2.00;;;;;;;17.82;52.25;98862.31;5068327;28;20473;-57
2021/12/27 10:01:19;;;;;;;4.40;2.10;;;;;;;17.82;52.20;98859.47;5068019;28;20187;-58
2021/12/27 10:03:53;;;;;;;3.13;2.20;;;;;;;17.83;51.85;98850.50;5067601;28;20211;-58
2021/12/27 10:06:19;;;;;;;2.67;1.77;;;;;;;17.81;52.10;98850.06;5069007;28;20201;-58
2021/12/27 10:08:52;;;;;;;2.60;1.90;;;;;;;17.79;52.91;98843.13;5066367;28;20916;-58
2021/12/27 10:11:27;;;;;;;3.37;1.80;;;;;;;17.80;52.72;98837.03;5068889;28;20420;-58
2021/12/27 10:14:11;;;;;;;3.00;2.00;;;;;;;17.84;51.80;98834.97;5067700;28;20924;-58
2021/12/27 10:16:41;;;;;;;3.10;2.10;;;;;;;17.80;52.38;98842.75;5066562;28;20456;-58
2021/12/27 10:19:08;;;;;;;2.20;1.70;;;;;;;17.84;52.48;98842.72;5068925;28;20405;-58
2021/12/27 10:21:34;;;;;;;2.63;1.87;;;;;;;17.79;52.73;98835.41;5070255;28;20777;-58
2021/12/27 10:24:05;;;;;;;3.77;2.23;;;;;;;17.80;52.25;98831.31;5068066;28;20928;-58
2021/12/27 10:26:31;;;;;;;2.73;2.03;;;;;;;17.77;52.02;98826.44;5067835;28;20589;-58
2021/12/27 10:29:10;;;;;;;2.40;1.43;;;;;;;17.80;52.08;98831.31;5068057;28;20424;-57
2021/12/27 10:31:51;;;;;;;2.80;2.10;;;;;;;17.79;52.16;98823.97;5071048;28;20419;-57
2021/12/27 10:34:17;;;;;;;3.30;1.93;;;;;;;17.79;52.31;98829.69;5090016;28;20879;-58
2021/12/27 10:37:03;;;;;;;2.83;1.80;;;;;;;17.78;52.24;98824.41;5073422;28;20528;-58
2021/12/27 10:39:44;;;;;;;2.47;1.80;;;;;;;17.80;52.21;98819.09;5068760;28;20931;-58
2021/12/27 10:42:11;;;;;;;2.63;1.63;;;;;;;17.76;52.25;98819.09;5055515;28;20986;-58
2021/12/27 10:44:36;;;;;;;3.00;1.83;;;;;;;17.76;52.23;98809.72;5051564;28;20424;-58
2021/12/27 10:47:03;;;;;;;2.53;1.77;;;;;;;17.79;52.47;98806.03;5072349;28;20807;-58
2021/12/27 10:49:47;;;;;;;2.67;1.93;;;;;;;17.75;52.50;98811.75;5072313;28;20516;-58
2021/12/27 10:52:12;;;;;;;3.83;2.40;;;;;;;17.73;52.84;98822.78;5072869;28;20449;-58
2021/12/27 10:54:38;;;;;;;3.90;2.40;;;;;;;17.74;52.32;98812.16;5072482;28;20823;-57
2021/12/27 10:57:04;;;;;;;2.80;1.80;;;;;;;17.72;52.90;98820.34;5073668;28;20171;-58
2021/12/27 10:59:29;;;;;;;3.00;2.13;;;;;;;17.71;52.40;98816.66;5072108;28;20228;-58
2021/12/27 11:01:55;;;;;;;2.57;1.70;;;;;;;17.74;52.38;98818.69;5071015;28;20206;-58
2021/12/27 11:04:20;;;;;;;2.30;1.77;;;;;;;17.73;52.22;98814.22;5072178;28;20183;-58
2021/12/27 11:06:46;;;;;;;2.53;1.73;;;;;;;17.74;52.48;98801.56;5073546;28;20201;-58
2021/12/27 11:09:14;;;;;;;2.43;1.83;;;;;;;17.74;52.36;98810.13;5072615;28;20230;-57
2021/12/27 11:11:40;;;;;;;2.83;2.00;;;;;;;17.73;52.11;98813.41;5073058;28;20517;-58
2021/12/27 11:14:05;;;;;;;2.73;2.00;;;;;;;17.73;52.55;98801.97;5073194;28;20447;-58
2021/12/27 11:16:30;;;;;;;2.90;2.03;;;;;;;17.74;52.52;98806.44;5072868;28;20175;-58
2021/12/27 11:18:56;;;;;;;4.00;1.80;;;;;;;17.76;52.15;98819.09;5036478;28;20406;-58
2021/12/27 11:21:25;;;;;;;2.63;1.97;;;;;;;17.71;52.36;98830.94;5071093;28;20183;-58
2021/12/27 11:23:51;;;;;;;2.40;1.77;;;;;;;17.71;52.76;98833.78;5053033;28;20203;-58
2021/12/27 11:26:24;;;;;;;3.10;1.97;;;;;;;17.71;52.33;98832.97;5072252;28;20736;-57
2021/12/27 11:28:50;;;;;;;2.60;1.70;;;;;;;17.68;52.41;98834.63;5069906;28;20417;-60
2021/12/27 11:31:28;;;;;;;2.40;1.67;;;;;;;17.66;52.75;98828.50;5068714;28;20490;-57
2021/12/27 11:33:58;;;;;;;2.23;1.60;;;;;;;17.66;52.55;98828.50;5070464;28;20167;-58